createdAt,value
2023-11-17T00:00:19.802Z,97364.14
2023-11-17T00:02:49.975Z,97352.43
2023-11-17T00:05:21.282Z,97357.30
2023-11-17T00:07:51.678Z,97353.47
2023-11-17T00:10:33.130Z,97364.14
2023-11-17T00:13:02.402Z,97350.50
2023-11-17T00:15:33.597Z,97350.77
2023-11-17T00:18:03.628Z,97357.58
2023-11-17T00:20:33.871Z,97361.66
2023-11-17T00:23:05.338Z,97350.77
2023-11-17T00:25:35.660Z,97350.77
2023-11-17T00:28:05.663Z,97349.95
2023-11-17T00:30:37.307Z,97342.30
2023-11-17T00:33:08.213Z,97347.77
2023-11-17T00:35:38.373Z,97345.86
2023-11-17T00:38:08.155Z,97352.12
2023-11-17T00:40:39.439Z,97364.11
2023-11-17T00:43:14.175Z,97377.73
2023-11-17T00:45:44.210Z,97386.72
2023-11-17T00:48:15.982Z,97383.19
2023-11-17T00:50:59.156Z,97385.61
2023-11-17T00:53:44.664Z,97385.61
2023-11-17T00:56:24.164Z,97392.41
2023-11-17T00:58:55.755Z,97369.78
2023-11-17T01:01:25.882Z,97381.25
2023-11-17T01:03:56.344Z,97383.42
2023-11-17T01:06:26.695Z,97366.27
2023-11-17T01:09:08.559Z,97387.78
2023-11-17T01:11:41.849Z,97375.23
2023-11-17T01:17:18.587Z,97376.08
2023-11-17T01:19:49.298Z,97366.55
2023-11-17T01:22:21.600Z,97370.61
2023-11-17T01:24:52.570Z,97355.10
2023-11-17T01:27:22.734Z,97342.55
2023-11-17T01:29:55.617Z,97339.55
2023-11-17T01:32:28.259Z,97328.66
2023-11-17T01:34:58.869Z,97334.35
2023-11-17T01:37:29.586Z,97342.01
2023-11-17T01:40:03.132Z,97355.63
2023-11-17T01:42:36.863Z,97367.34
2023-11-17T01:45:08.760Z,97368.15
2023-11-17T01:47:41.009Z,97365.16
2023-11-17T01:50:13.562Z,97361.89
2023-11-17T01:52:48.947Z,97370.06
2023-11-17T01:55:21.299Z,97369.24
2023-11-17T01:57:51.728Z,97372.78
2023-11-17T02:00:23.274Z,97372.23
2023-11-17T02:02:59.441Z,97370.87
2023-11-17T02:05:29.737Z,97371.97
2023-11-17T02:08:16.477Z,97370.61
2023-11-17T02:10:48.571Z,97372.48
2023-11-17T02:13:23.965Z,97366.52
2023-11-17T02:16:13.103Z,97367.01
2023-11-17T02:18:44.083Z,97373.84
2023-11-17T02:21:15.478Z,97361.86
2023-11-17T02:23:46.698Z,97347.67
2023-11-17T02:26:27.530Z,97347.10
2023-11-17T02:29:15.111Z,97345.52
2023-11-17T02:31:49.834Z,97315.76
2023-11-17T02:34:21.687Z,97311.72
2023-11-17T02:36:52.304Z,97306.28
2023-11-17T02:39:28.861Z,97305.46
2023-11-17T02:42:07.823Z,97300.56
2023-11-17T02:44:43.066Z,97297.02
2023-11-17T02:47:16.795Z,97301.11
2023-11-17T02:49:48.226Z,97308.19
2023-11-17T02:52:22.341Z,97301.36
2023-11-17T02:54:56.566Z,97299.42
2023-11-17T02:57:28.483Z,97304.63
2023-11-17T03:00:03.198Z,97313.06
2023-11-17T03:02:33.138Z,97325.05
2023-11-17T03:05:03.764Z,97329.13
2023-11-17T03:07:35.347Z,97333.77
2023-11-17T03:10:07.983Z,97325.27
2023-11-17T03:12:38.213Z,97326.11
2023-11-17T03:15:10.268Z,97345.47
2023-11-17T03:17:42.078Z,97339.45
2023-11-17T03:20:19.423Z,97358.80
2023-11-17T03:22:50.167Z,97359.61
2023-11-17T03:25:20.160Z,97368.34
2023-11-17T03:27:53.674Z,97373.80
2023-11-17T03:30:24.785Z,97384.14
2023-11-17T03:32:59.986Z,97393.92
2023-11-17T03:35:31.527Z,97396.64
2023-11-17T03:38:03.548Z,97393.10
2023-11-17T03:40:35.704Z,97381.94
2023-11-17T03:43:06.419Z,97370.50
2023-11-17T03:45:35.761Z,97365.84
2023-11-17T03:48:07.248Z,97373.22
2023-11-17T03:50:39.940Z,97380.03
2023-11-17T03:53:09.834Z,97374.53
2023-11-17T03:55:40.616Z,97391.98
2023-11-17T03:58:11.165Z,97395.25
2023-11-17T04:00:42.060Z,97393.86
2023-11-17T04:03:12.077Z,97391.71
2023-11-17T04:05:44.067Z,97389.50
2023-11-17T04:08:16.072Z,97409.95
2023-11-17T04:10:49.985Z,97403.97
2023-11-17T04:13:21.125Z,97408.56
2023-11-17T04:15:51.671Z,97401.76
2023-11-17T04:18:22.270Z,97391.14
2023-11-17T04:20:54.312Z,97402.87
2023-11-17T04:23:24.215Z,97405.84
2023-11-17T04:25:54.439Z,97421.03
2023-11-17T04:28:25.114Z,97444.52
2023-11-17T04:30:55.105Z,97456.77
2023-11-17T04:33:24.545Z,97453.50
2023-11-17T04:35:54.938Z,97442.60
2023-11-17T04:38:43.688Z,97434.64
2023-11-17T04:41:15.284Z,97442.33
2023-11-17T04:43:45.470Z,97446.66
2023-11-17T04:46:21.530Z,97442.57
2023-11-17T04:48:53.034Z,97436.31
2023-11-17T04:51:22.374Z,97427.02
2023-11-17T04:53:51.810Z,97409.87
2023-11-17T04:56:21.522Z,97413.95
2023-11-17T04:58:51.369Z,97410.14
2023-11-17T05:01:22.120Z,97419.13
2023-11-17T05:03:51.971Z,97420.19
2023-11-17T05:06:22.781Z,97414.74
2023-11-17T05:08:52.658Z,97421.55
2023-11-17T05:11:23.527Z,97409.84
2023-11-17T05:13:53.353Z,97405.48
2023-11-17T05:16:22.841Z,97406.84
2023-11-17T05:18:52.498Z,97397.02
2023-11-17T05:21:22.624Z,97389.69
2023-11-17T05:23:52.784Z,97378.26
2023-11-17T05:26:22.189Z,97376.87
2023-11-17T05:29:12.838Z,97385.85
2023-11-17T05:34:37.019Z,97370.33
2023-11-17T05:37:06.617Z,97372.78
2023-11-17T05:39:37.362Z,97357.00
2023-11-17T05:42:06.991Z,97362.44
2023-11-17T05:44:37.116Z,97359.42
2023-11-17T05:47:27.011Z,97365.67
2023-11-17T05:52:45.961Z,97349.62
2023-11-17T05:55:16.978Z,97341.15
2023-11-17T05:57:47.213Z,97337.91
2023-11-17T06:00:18.935Z,97333.83
2023-11-17T06:02:49.131Z,97341.70
2023-11-17T06:05:20.047Z,97342.23
2023-11-17T06:07:50.159Z,97340.63
2023-11-17T06:10:20.327Z,97342.23
2023-11-17T06:12:50.553Z,97351.22
2023-11-17T06:15:21.708Z,97344.41
2023-11-17T06:17:51.342Z,97329.66
2023-11-17T06:20:21.488Z,97334.34
2023-11-17T06:22:51.891Z,97314.94
2023-11-17T06:25:21.922Z,97323.70
2023-11-17T06:27:52.138Z,97333.50
2023-11-17T06:30:22.325Z,97323.16
2023-11-17T06:32:51.821Z,97320.16
2023-11-17T06:35:21.910Z,97329.42
2023-11-17T06:38:11.207Z,97342.52
2023-11-17T06:40:41.320Z,97342.21
2023-11-17T06:43:11.586Z,97324.25
2023-11-17T06:45:44.167Z,97304.05
2023-11-17T06:48:15.553Z,97316.08
2023-11-17T06:50:46.173Z,97304.32
2023-11-17T06:53:16.910Z,97305.73
2023-11-17T06:55:47.401Z,97314.72
2023-11-17T06:58:34.353Z,97320.98
2023-11-17T07:01:04.376Z,97328.33
2023-11-17T07:03:34.595Z,97344.66
2023-11-17T07:06:05.028Z,97337.05
2023-11-17T07:08:35.820Z,97338.91
2023-11-17T07:11:08.528Z,97341.64
2023-11-17T07:13:38.521Z,97338.91
2023-11-17T07:16:10.603Z,97331.30
2023-11-17T07:18:42.701Z,97317.14
2023-11-17T07:21:12.778Z,97310.58
2023-11-17T07:23:44.584Z,97310.58
2023-11-17T07:26:24.689Z,97317.96
2023-11-17T07:28:54.857Z,97331.57
2023-11-17T07:31:25.412Z,97332.08
2023-11-17T07:33:55.462Z,97319.56
2023-11-17T07:36:25.605Z,97309.22
2023-11-17T07:38:57.688Z,97301.88
2023-11-17T07:41:28.087Z,97299.97
2023-11-17T07:43:59.149Z,97297.77
2023-11-17T07:46:31.049Z,97299.69
2023-11-17T07:49:01.750Z,97315.21
2023-11-17T07:51:31.717Z,97320.66
2023-11-17T07:54:05.219Z,97331.52
2023-11-17T07:56:36.522Z,97327.13
2023-11-17T07:59:08.336Z,97327.70
2023-11-17T08:01:39.197Z,97316.81
2023-11-17T08:04:11.350Z,97313.27
2023-11-17T08:06:41.398Z,97303.72
2023-11-17T08:09:15.366Z,97301.57
2023-11-17T08:11:45.302Z,97300.73
2023-11-17T08:14:16.076Z,97302.09
2023-11-17T08:16:46.697Z,97313.00
2023-11-17T08:19:24.537Z,97316.52
2023-11-17T08:22:08.870Z,97327.67
2023-11-17T08:24:39.451Z,97324.70
2023-11-17T08:27:09.752Z,97327.13
2023-11-17T08:29:39.611Z,97336.38
2023-11-17T08:32:13.766Z,97339.89
2023-11-17T08:34:44.287Z,97342.38
2023-11-17T08:37:14.932Z,97321.93
2023-11-17T08:39:45.756Z,97336.93
2023-11-17T08:42:16.160Z,97346.45
2023-11-17T08:44:46.511Z,97345.91
2023-11-17T08:47:16.552Z,97334.17
2023-11-17T08:49:46.119Z,97351.08
2023-11-17T08:52:15.907Z,97352.95
2023-11-17T08:54:46.048Z,97358.94
2023-11-17T08:57:16.484Z,97345.85
2023-11-17T08:59:47.340Z,97348.05
2023-11-17T09:02:18.261Z,97346.42
2023-11-17T09:04:50.040Z,97349.14
2023-11-17T09:07:20.839Z,97353.50
2023-11-17T09:09:52.230Z,97364.66
2023-11-17T09:12:22.883Z,97351.02
2023-11-17T09:14:54.293Z,97362.48
2023-11-17T09:17:24.952Z,97362.18
2023-11-17T09:19:56.286Z,97364.66
2023-11-17T09:22:26.967Z,97352.66
2023-11-17T09:24:57.269Z,97345.27
2023-11-17T09:27:27.753Z,97371.16
2023-11-17T09:29:59.138Z,97379.30
2023-11-17T09:32:28.941Z,97397.55
2023-11-17T09:34:59.193Z,97399.46
2023-11-17T09:37:29.347Z,97398.92
2023-11-17T09:39:59.451Z,97398.61
2023-11-17T09:42:29.699Z,97399.43
2023-11-17T09:44:59.594Z,97404.05
2023-11-17T09:47:31.207Z,97402.73
2023-11-17T09:50:01.904Z,97395.63
2023-11-17T09:52:31.940Z,97407.87
2023-11-17T09:55:02.903Z,97425.55
2023-11-17T09:57:33.313Z,97437.53
2023-11-17T10:00:03.649Z,97435.89
2023-11-17T10:02:35.148Z,97439.44
2023-11-17T10:05:05.578Z,97438.04
2023-11-17T10:07:37.129Z,97447.59
2023-11-17T10:10:07.666Z,97458.99
2023-11-17T10:12:37.680Z,97456.30
2023-11-17T10:15:27.049Z,97461.75
2023-11-17T10:18:01.834Z,97469.61
2023-11-17T10:20:31.820Z,97477.23
2023-11-17T10:23:01.822Z,97468.21
2023-11-17T10:25:31.976Z,97472.33
2023-11-17T10:28:01.940Z,97466.34
2023-11-17T10:30:33.262Z,97458.69
2023-11-17T10:33:19.811Z,97452.46
2023-11-17T10:36:00.391Z,97447.56
2023-11-17T10:38:30.583Z,97456.27
2023-11-17T10:41:23.349Z,97461.95
2023-11-17T10:43:55.386Z,97472.05
2023-11-17T10:46:26.590Z,97476.38
2023-11-17T10:49:07.477Z,97481.27
2023-11-17T10:51:37.968Z,97500.59
2023-11-17T10:54:09.715Z,97510.94
2023-11-17T10:56:40.150Z,97509.57
2023-11-17T10:59:11.991Z,97494.84
2023-11-17T11:01:43.591Z,97499.20
2023-11-17T11:04:17.311Z,97497.87
2023-11-17T11:06:49.047Z,97489.70
2023-11-17T11:09:21.580Z,97497.05
2023-11-17T11:11:52.999Z,97491.30
2023-11-17T11:14:24.336Z,97503.55
2023-11-17T11:16:55.985Z,97500.28
2023-11-17T11:19:38.571Z,97501.64
2023-11-17T11:22:03.409Z,97500.79
2023-11-17T11:24:38.755Z,97502.16
2023-11-17T11:27:11.841Z,97506.00
2023-11-17T11:29:45.276Z,97510.82
2023-11-17T11:32:16.668Z,97516.06
2023-11-17T11:34:46.931Z,97510.58
2023-11-17T11:37:16.782Z,97510.04
2023-11-17T11:39:47.116Z,97527.19
2023-11-17T11:42:20.229Z,97541.37
2023-11-17T11:44:50.224Z,97554.70
2023-11-17T11:47:20.932Z,97539.39
2023-11-17T11:50:09.482Z,97539.39
2023-11-17T11:52:41.699Z,97538.88
2023-11-17T11:55:11.507Z,97550.86
2023-11-17T11:57:43.679Z,97551.94
2023-11-17T12:00:16.564Z,97550.27
2023-11-17T12:03:00.214Z,97554.90
2023-11-17T12:05:36.188Z,97550.81
2023-11-17T12:08:05.903Z,97544.02
2023-11-17T12:10:46.411Z,97534.22
2023-11-17T12:13:34.281Z,97536.09
2023-11-17T12:16:04.457Z,97544.56
2023-11-17T12:18:34.473Z,97563.53
2023-11-17T12:21:12.229Z,97588.30
2023-11-17T12:23:51.150Z,97592.91
2023-11-17T12:26:21.215Z,97597.54
2023-11-17T12:28:50.597Z,97593.46
2023-11-17T12:31:20.738Z,97588.56
2023-11-17T12:33:52.016Z,97578.22
2023-11-17T12:36:21.618Z,97573.59
2023-11-17T12:38:55.718Z,97589.92
2023-11-17T12:41:29.659Z,97593.18
2023-11-17T12:43:58.616Z,97605.94
2023-11-17T12:46:28.660Z,97610.02
2023-11-17T12:48:58.367Z,97617.67
2023-11-17T12:51:32.079Z,97621.44
2023-11-17T12:54:02.047Z,97610.56
2023-11-17T12:56:31.848Z,97607.30
2023-11-17T13:01:30.692Z,97625.52
2023-11-17T13:04:01.952Z,97626.30
2023-11-17T13:06:32.099Z,97623.06
2023-11-17T13:09:02.118Z,97611.64
2023-11-17T13:11:37.401Z,97618.14
2023-11-17T13:14:08.154Z,97615.73
2023-11-17T13:16:37.894Z,97618.44
2023-11-17T13:19:08.901Z,97619.50
2023-11-17T13:21:40.109Z,97620.04
2023-11-17T13:24:10.985Z,97629.87
2023-11-17T13:26:43.187Z,97630.37
2023-11-17T13:29:13.994Z,97632.28
2023-11-17T13:31:44.334Z,97642.34
2023-11-17T13:34:37.243Z,97654.05
2023-11-17T13:37:08.393Z,97655.95
2023-11-17T13:39:38.906Z,97661.93
2023-11-17T13:42:10.208Z,97681.52
2023-11-17T13:44:39.892Z,97691.31
2023-11-17T13:47:10.775Z,97696.71
2023-11-17T13:49:41.636Z,97702.74
2023-11-17T13:52:14.439Z,97706.00
2023-11-17T13:54:45.396Z,97703.28
2023-11-17T13:57:15.563Z,97712.80
2023-11-17T13:59:45.864Z,97709.77
2023-11-17T14:02:15.575Z,97704.33
2023-11-17T14:04:45.616Z,97708.41
2023-11-17T14:07:16.549Z,97709.77
2023-11-17T14:09:47.339Z,97701.10
2023-11-17T14:12:18.588Z,97694.53
2023-11-17T14:14:47.669Z,97697.25
2023-11-17T14:17:17.624Z,97709.77
2023-11-17T14:19:47.336Z,97720.66
2023-11-17T14:22:16.900Z,97728.00
2023-11-17T14:24:46.659Z,97731.54
2023-11-17T14:27:17.224Z,97726.95
2023-11-17T14:29:49.269Z,97723.38
2023-11-17T14:32:20.239Z,97728.00
2023-11-17T14:34:52.348Z,97728.00
2023-11-17T14:37:23.282Z,97744.86
2023-11-17T14:39:53.174Z,97753.02
2023-11-17T14:42:23.160Z,97766.63
2023-11-17T14:44:55.255Z,97770.71
2023-11-17T14:47:28.301Z,97761.19
2023-11-17T14:49:59.170Z,97748.66
2023-11-17T14:52:30.940Z,97747.59
2023-11-17T14:55:01.372Z,97743.22
2023-11-17T14:57:32.805Z,97736.93
2023-11-17T15:00:02.761Z,97734.21
2023-11-17T15:02:35.521Z,97737.78
2023-11-17T15:05:06.721Z,97729.63
2023-11-17T15:07:37.035Z,97726.64
2023-11-17T15:10:08.615Z,97730.44
2023-11-17T15:12:39.223Z,97735.34
2023-11-17T15:15:12.099Z,97745.95
2023-11-17T15:17:42.585Z,97748.12
2023-11-17T15:20:15.474Z,97741.33
2023-11-17T15:22:44.948Z,97746.22
2023-11-17T15:25:17.388Z,97750.53
2023-11-17T15:27:49.069Z,97748.95
2023-11-17T15:30:20.515Z,97743.22
2023-11-17T15:32:50.098Z,97735.06
2023-11-17T15:35:20.949Z,97740.50
2023-11-17T15:37:50.803Z,97748.66
2023-11-17T15:40:22.187Z,97757.11
2023-11-17T15:42:52.004Z,97754.62
2023-11-17T15:45:22.942Z,97766.34
2023-11-17T15:47:52.940Z,97770.43
2023-11-17T15:50:22.867Z,97773.66
2023-11-17T15:52:54.361Z,97780.77
2023-11-17T15:55:23.876Z,97782.67
2023-11-17T15:57:53.797Z,97795.42
2023-11-17T16:00:26.293Z,97808.20
2023-11-17T16:02:56.627Z,97811.75
2023-11-17T16:05:26.646Z,97808.20
2023-11-17T16:07:56.446Z,97812.77
2023-11-17T16:10:26.853Z,97819.91
2023-11-17T16:12:58.986Z,97814.19
2023-11-17T16:15:28.465Z,97815.01
2023-11-17T16:17:58.668Z,97812.83
2023-11-17T16:20:30.877Z,97817.45
2023-11-17T16:23:02.010Z,97816.09
2023-11-17T16:25:34.801Z,97815.83
2023-11-17T16:28:05.739Z,97820.45
2023-11-17T16:30:37.622Z,97818.55
2023-11-17T16:33:07.660Z,97821.27
2023-11-17T16:35:39.773Z,97823.98
2023-11-17T16:38:09.210Z,97842.52
2023-11-17T16:40:40.199Z,97865.34
2023-11-17T16:43:11.535Z,97863.98
2023-11-17T16:45:45.539Z,97869.42
2023-11-17T16:48:15.192Z,97875.17
2023-11-17T16:50:46.722Z,97886.56
2023-11-17T16:53:16.388Z,97888.47
2023-11-17T16:55:49.115Z,97893.08
2023-11-17T16:58:18.990Z,97891.50
2023-11-17T17:00:49.837Z,97888.47
2023-11-17T17:03:24.256Z,97882.73
2023-11-17T17:05:54.317Z,97879.77
2023-11-17T17:08:25.577Z,97872.45
2023-11-17T17:10:55.499Z,97872.45
2023-11-17T17:13:25.425Z,97869.42
2023-11-17T17:15:55.168Z,97879.25
2023-11-17T17:18:26.097Z,97886.56
2023-11-17T17:20:55.735Z,97887.10
2023-11-17T17:23:25.428Z,97881.97
2023-11-17T17:25:56.553Z,97886.56
2023-11-17T17:28:26.713Z,97895.58
2023-11-17T17:30:56.533Z,97895.86
2023-11-17T17:33:26.430Z,97887.10
2023-11-17T17:36:17.678Z,97890.95
2023-11-17T17:38:48.872Z,97901.53
2023-11-17T17:41:23.452Z,97906.46
2023-11-17T17:43:54.263Z,97898.80
2023-11-17T17:46:24.145Z,97896.94
2023-11-17T17:48:54.181Z,97896.94
2023-11-17T17:51:23.921Z,97891.19
2023-11-17T17:53:53.287Z,97897.76
2023-11-17T17:56:23.790Z,97886.56
2023-11-17T17:58:53.876Z,97892.86
2023-11-17T18:01:23.496Z,97888.77
2023-11-17T18:03:53.135Z,97884.70
2023-11-17T18:06:22.655Z,97875.99
2023-11-17T18:08:53.810Z,97868.06
2023-11-17T18:11:27.502Z,97863.44
2023-11-17T18:13:57.347Z,97858.00
2023-11-17T18:16:27.123Z,97860.48
2023-11-17T18:18:57.958Z,97845.25
2023-11-17T18:21:28.013Z,97843.34
2023-11-17T18:23:58.286Z,97843.83
2023-11-17T18:26:30.081Z,97849.61
2023-11-17T18:29:01.504Z,97836.83
2023-11-17T18:31:31.674Z,97837.36
2023-11-17T18:34:01.761Z,97833.28
2023-11-17T18:36:31.901Z,97836.00
2023-11-17T18:39:01.753Z,97835.47
2023-11-17T18:41:51.654Z,97833.56
2023-11-17T18:44:21.592Z,97830.56
2023-11-17T18:46:51.440Z,97834.10
2023-11-17T18:49:21.313Z,97836.28
2023-11-17T18:51:51.075Z,97841.22
2023-11-17T18:54:20.736Z,97847.48
2023-11-17T18:56:50.160Z,97848.53
2023-11-17T18:59:20.069Z,97852.33
2023-11-17T19:01:49.956Z,97853.15
2023-11-17T19:04:21.077Z,97856.69
2023-11-17T19:06:51.045Z,97844.98
2023-11-17T19:09:21.386Z,97841.98
2023-11-17T19:11:52.027Z,97844.98
2023-11-17T19:14:22.053Z,97845.53
2023-11-17T19:16:54.913Z,97836.28
2023-11-17T19:19:24.513Z,97840.36
2023-11-17T19:21:54.237Z,97829.48
2023-11-17T19:24:24.004Z,97836.83
2023-11-17T19:27:12.193Z,97840.91
2023-11-17T19:29:42.085Z,97845.80
2023-11-17T19:32:32.133Z,97847.70
2023-11-17T19:35:03.388Z,97855.33
2023-11-17T19:37:33.504Z,97851.25
2023-11-17T19:40:04.004Z,97841.67
2023-11-17T19:42:34.844Z,97839.86
2023-11-17T19:45:06.738Z,97848.84
2023-11-17T19:47:40.912Z,97841.50
2023-11-17T19:50:14.812Z,97840.95
2023-11-17T19:52:45.223Z,97844.22
2023-11-17T19:55:15.832Z,97855.92
2023-11-17T19:57:47.603Z,97855.38
2023-11-17T20:00:20.210Z,97862.72
2023-11-17T20:02:50.605Z,97867.06
2023-11-17T20:05:23.771Z,97852.09
2023-11-17T20:07:54.552Z,97852.66
2023-11-17T20:10:25.836Z,97853.48
2023-11-17T20:12:56.013Z,97864.36
2023-11-17T20:15:26.693Z,97874.20
2023-11-17T20:17:58.148Z,97864.91
2023-11-17T20:20:28.900Z,97860.28
2023-11-17T20:23:00.493Z,97861.63
2023-11-17T20:25:31.435Z,97868.76
2023-11-17T20:28:02.597Z,97877.46
2023-11-17T20:30:33.445Z,97878.82
2023-11-17T20:33:04.106Z,97880.69
2023-11-17T20:35:35.544Z,97875.56
2023-11-17T20:40:36.205Z,97871.97
2023-11-17T20:45:38.424Z,97881.28
2023-11-17T20:48:09.742Z,97877.20
2023-11-17T20:50:40.416Z,97876.61
2023-11-17T20:53:11.742Z,97871.48
2023-11-17T20:55:42.464Z,97864.91
2023-11-17T20:58:13.472Z,97864.73
2023-11-17T21:00:44.603Z,97854.84
2023-11-17T21:03:15.910Z,97861.19
2023-11-17T21:05:46.650Z,97870.17
2023-11-17T21:08:17.894Z,97881.34
2023-11-17T21:10:47.952Z,97883.23
2023-11-17T21:13:20.025Z,97881.34
2023-11-17T21:15:50.855Z,97876.72
2023-11-17T21:18:21.078Z,97876.66
2023-11-17T21:20:51.092Z,97885.41
2023-11-17T21:23:21.424Z,97892.98
2023-11-17T21:25:52.968Z,97897.97
2023-11-17T21:28:24.997Z,97893.39
2023-11-17T21:30:55.463Z,97896.11
2023-11-17T21:33:25.617Z,97901.55
2023-11-17T21:35:57.027Z,97903.64
2023-11-17T21:38:31.271Z,97911.07
2023-11-17T21:41:01.019Z,97916.80
2023-11-17T21:43:31.569Z,97920.59
2023-11-17T21:46:04.435Z,97920.59
2023-11-17T21:48:35.244Z,97910.53
2023-11-17T21:51:06.600Z,97913.17
2023-11-17T21:53:37.183Z,97917.62
2023-11-17T21:56:08.687Z,97926.60
2023-11-17T21:58:39.347Z,97925.41
2023-11-17T22:01:10.685Z,97924.33
2023-11-17T22:03:41.324Z,97924.42
2023-11-17T22:06:12.766Z,97930.68
2023-11-17T22:08:42.691Z,97928.81
2023-11-17T22:11:13.379Z,97935.08
2023-11-17T22:13:43.404Z,97934.77
2023-11-17T22:16:16.292Z,97942.93
2023-11-17T22:18:47.340Z,97937.20
2023-11-17T22:21:17.446Z,97946.50
2023-11-17T22:23:47.728Z,97950.05
2023-11-17T22:26:20.194Z,97953.87
2023-11-17T22:28:51.769Z,97944.83
2023-11-17T22:31:23.031Z,97950.27
2023-11-17T22:33:53.706Z,97966.11
2023-11-17T22:36:23.625Z,97963.88
2023-11-17T22:38:53.760Z,97965.83
2023-11-17T22:41:24.081Z,97967.25
2023-11-17T22:43:54.357Z,97962.83
2023-11-17T22:46:25.404Z,97966.71
2023-11-17T22:48:56.076Z,97968.38
2023-11-17T22:51:27.954Z,97969.20
2023-11-17T22:54:00.849Z,97970.84
2023-11-17T22:56:30.148Z,97966.77
2023-11-17T22:59:01.528Z,97962.62
2023-11-17T23:01:31.437Z,97964.86
2023-11-17T23:04:02.056Z,97967.91
2023-11-17T23:06:33.372Z,97965.72
2023-11-17T23:09:04.343Z,97964.64
2023-11-17T23:11:36.172Z,97958.60
2023-11-17T23:14:08.280Z,97964.64
2023-11-17T23:16:41.708Z,97962.69
2023-11-17T23:19:18.003Z,97964.05
2023-11-17T23:21:44.355Z,97976.13
2023-11-17T23:24:14.386Z,97964.92
2023-11-17T23:26:44.616Z,97970.36
2023-11-17T23:29:15.921Z,97969.83
2023-11-17T23:31:46.511Z,97968.19
2023-11-17T23:34:17.909Z,97977.11
2023-11-17T23:36:48.467Z,97981.56
2023-11-17T23:39:19.952Z,97990.78
2023-11-17T23:41:54.242Z,97986.70
2023-11-17T23:44:24.625Z,97988.05
2023-11-17T23:46:55.435Z,97983.41
2023-11-17T23:49:26.754Z,97986.16
2023-11-17T23:51:57.317Z,97998.94
2023-11-17T23:54:31.491Z,97996.48
2023-11-17T23:57:02.999Z,97998.94
2023-11-17T23:59:34.109Z,98002.74
